sensor_id;sensor_type;location;lat;lon;timestamp;P1;durP1;ratioP1;P2;durP2;ratioP2
20073;SDS011;10197;54.282;10.078;2023-07-13T00:00:50;6.18;;;3.28;;
20073;SDS011;10197;54.282;10.078;2023-07-13T00:03:16;7.80;;;3.08;;
20073;SDS011;10197;54.282;10.078;2023-07-13T00:05:43;6.20;;;3.05;;
20073;SDS011;10197;54.282;10.078;2023-07-13T00:08:12;6.97;;;2.78;;
20073;SDS011;10197;54.282;10.078;2023-07-13T00:10:39;5.35;;;2.85;;
20073;SDS011;10197;54.282;10.078;2023-07-13T00:13:10;6.18;;;2.92;;
20073;SDS011;10197;54.282;10.078;2023-07-13T00:15:37;6.28;;;2.65;;
20073;SDS011;10197;54.282;10.078;2023-07-13T00:18:04;5.07;;;2.70;;
20073;SDS011;10197;54.282;10.078;2023-07-13T00:20:31;7.03;;;2.72;;
20073;SDS011;10197;54.282;10.078;2023-07-13T00:22:58;6.28;;;3.20;;
20073;SDS011;10197;54.282;10.078;2023-07-13T00:25:27;6.97;;;3.08;;
20073;SDS011;10197;54.282;10.078;2023-07-13T00:27:56;4.78;;;2.83;;
20073;SDS011;10197;54.282;10.078;2023-07-13T00:30:25;6.80;;;2.88;;
20073;SDS011;10197;54.282;10.078;2023-07-13T00:32:51;5.65;;;3.28;;
20073;SDS011;10197;54.282;10.078;2023-07-13T00:35:19;6.30;;;3.10;;
20073;SDS011;10197;54.282;10.078;2023-07-13T00:37:46;7.18;;;3.15;;
20073;SDS011;10197;54.282;10.078;2023-07-13T00:40:13;8.07;;;3.90;;
20073;SDS011;10197;54.282;10.078;2023-07-13T00:42:41;7.93;;;3.90;;
20073;SDS011;10197;54.282;10.078;2023-07-13T00:48:08;8.00;;;3.88;;
20073;SDS011;10197;54.282;10.078;2023-07-13T00:50:35;6.43;;;3.53;;
20073;SDS011;10197;54.282;10.078;2023-07-13T00:53:03;10.63;;;4.10;;
20073;SDS011;10197;54.282;10.078;2023-07-13T00:55:30;10.98;;;4.25;;
20073;SDS011;10197;54.282;10.078;2023-07-13T00:57:58;9.43;;;3.97;;
20073;SDS011;10197;54.282;10.078;2023-07-13T01:00:25;7.40;;;3.78;;
20073;SDS011;10197;54.282;10.078;2023-07-13T01:02:53;3.42;;;3.10;;
20073;SDS011;10197;54.282;10.078;2023-07-13T01:05:21;6.35;;;3.28;;
20073;SDS011;10197;54.282;10.078;2023-07-13T01:07:49;6.97;;;3.67;;
20073;SDS011;10197;54.282;10.078;2023-07-13T01:10:19;6.38;;;3.35;;
20073;SDS011;10197;54.282;10.078;2023-07-13T01:12:48;11.43;;;3.40;;
20073;SDS011;10197;54.282;10.078;2023-07-13T01:18:11;11.07;;;4.47;;
20073;SDS011;10197;54.282;10.078;2023-07-13T01:20:40;9.35;;;4.80;;
20073;SDS011;10197;54.282;10.078;2023-07-13T01:23:10;8.07;;;4.07;;
20073;SDS011;10197;54.282;10.078;2023-07-13T01:25:38;8.18;;;4.28;;
20073;SDS011;10197;54.282;10.078;2023-07-13T01:28:05;10.13;;;3.72;;
20073;SDS011;10197;54.282;10.078;2023-07-13T01:30:34;10.70;;;4.22;;
20073;SDS011;10197;54.282;10.078;2023-07-13T01:33:01;5.38;;;3.55;;
20073;SDS011;10197;54.282;10.078;2023-07-13T01:35:29;11.88;;;4.53;;
20073;SDS011;10197;54.282;10.078;2023-07-13T01:37:56;6.80;;;4.30;;
20073;SDS011;10197;54.282;10.078;2023-07-13T01:40:24;4.85;;;4.10;;
20073;SDS011;10197;54.282;10.078;2023-07-13T01:42:51;8.90;;;3.72;;
20073;SDS011;10197;54.282;10.078;2023-07-13T01:45:19;5.78;;;3.38;;
20073;SDS011;10197;54.282;10.078;2023-07-13T01:47:46;3.67;;;2.92;;
20073;SDS011;10197;54.282;10.078;2023-07-13T01:50:13;4.35;;;3.10;;
20073;SDS011;10197;54.282;10.078;2023-07-13T01:52:40;6.45;;;3.40;;
20073;SDS011;10197;54.282;10.078;2023-07-13T01:55:07;5.47;;;3.50;;
20073;SDS011;10197;54.282;10.078;2023-07-13T01:57:36;8.40;;;3.80;;
20073;SDS011;10197;54.282;10.078;2023-07-13T02:00:03;6.93;;;3.75;;
20073;SDS011;10197;54.282;10.078;2023-07-13T02:02:41;6.07;;;3.83;;
20073;SDS011;10197;54.282;10.078;2023-07-13T02:05:09;6.47;;;4.22;;
20073;SDS011;10197;54.282;10.078;2023-07-13T02:07:37;7.53;;;4.45;;
20073;SDS011;10197;54.282;10.078;2023-07-13T02:10:04;7.53;;;4.35;;
20073;SDS011;10197;54.282;10.078;2023-07-13T02:12:31;10.48;;;4.07;;
20073;SDS011;10197;54.282;10.078;2023-07-13T02:15:00;7.22;;;4.40;;
20073;SDS011;10197;54.282;10.078;2023-07-13T02:17:27;6.45;;;4.80;;
20073;SDS011;10197;54.282;10.078;2023-07-13T02:19:54;9.00;;;4.20;;
20073;SDS011;10197;54.282;10.078;2023-07-13T02:22:21;7.32;;;4.13;;
20073;SDS011;10197;54.282;10.078;2023-07-13T02:24:48;7.88;;;3.80;;
20073;SDS011;10197;54.282;10.078;2023-07-13T02:27:17;6.80;;;3.67;;
20073;SDS011;10197;54.282;10.078;2023-07-13T02:29:44;4.43;;;3.78;;
20073;SDS011;10197;54.282;10.078;2023-07-13T02:32:12;7.35;;;3.88;;
20073;SDS011;10197;54.282;10.078;2023-07-13T02:34:40;6.57;;;3.58;;
20073;SDS011;10197;54.282;10.078;2023-07-13T02:37:07;6.07;;;3.88;;
20073;SDS011;10197;54.282;10.078;2023-07-13T02:39:34;10.07;;;4.57;;
20073;SDS011;10197;54.282;10.078;2023-07-13T02:42:02;6.97;;;4.50;;
20073;SDS011;10197;54.282;10.078;2023-07-13T02:44:30;5.47;;;4.05;;
20073;SDS011;10197;54.282;10.078;2023-07-13T02:46:56;4.53;;;3.67;;
20073;SDS011;10197;54.282;10.078;2023-07-13T02:49:25;5.90;;;3.97;;
20073;SDS011;10197;54.282;10.078;2023-07-13T02:51:51;5.75;;;3.40;;
20073;SDS011;10197;54.282;10.078;2023-07-13T02:54:18;7.53;;;4.30;;
20073;SDS011;10197;54.282;10.078;2023-07-13T02:56:46;5.55;;;3.53;;
20073;SDS011;10197;54.282;10.078;2023-07-13T02:59:13;6.78;;;4.40;;
20073;SDS011;10197;54.282;10.078;2023-07-13T03:01:40;6.95;;;4.45;;
20073;SDS011;10197;54.282;10.078;2023-07-13T03:04:07;7.68;;;4.57;;
20073;SDS011;10197;54.282;10.078;2023-07-13T03:06:35;9.50;;;5.15;;
20073;SDS011;10197;54.282;10.078;2023-07-13T03:09:03;12.00;;;5.35;;
20073;SDS011;10197;54.282;10.078;2023-07-13T03:11:32;7.90;;;5.43;;
20073;SDS011;10197;54.282;10.078;2023-07-13T03:14:16;9.90;;;5.07;;
20073;SDS011;10197;54.282;10.078;2023-07-13T03:16:43;9.68;;;5.53;;
20073;SDS011;10197;54.282;10.078;2023-07-13T03:19:11;9.40;;;5.00;;
20073;SDS011;10197;54.282;10.078;2023-07-13T03:21:41;7.32;;;5.00;;
20073;SDS011;10197;54.282;10.078;2023-07-13T03:24:08;12.70;;;5.63;;
20073;SDS011;10197;54.282;10.078;2023-07-13T03:26:35;9.48;;;5.38;;
20073;SDS011;10197;54.282;10.078;2023-07-13T03:29:03;7.82;;;5.10;;
20073;SDS011;10197;54.282;10.078;2023-07-13T03:31:33;6.97;;;5.45;;
20073;SDS011;10197;54.282;10.078;2023-07-13T03:34:00;6.90;;;5.07;;
20073;SDS011;10197;54.282;10.078;2023-07-13T03:36:29;5.72;;;5.13;;
20073;SDS011;10197;54.282;10.078;2023-07-13T03:39:02;10.57;;;5.43;;
20073;SDS011;10197;54.282;10.078;2023-07-13T03:41:45;8.68;;;5.70;;
20073;SDS011;10197;54.282;10.078;2023-07-13T03:44:12;8.80;;;5.05;;
20073;SDS011;10197;54.282;10.078;2023-07-13T03:46:39;12.57;;;5.85;;
20073;SDS011;10197;54.282;10.078;2023-07-13T03:49:07;8.70;;;5.88;;
20073;SDS011;10197;54.282;10.078;2023-07-13T03:51:34;9.88;;;6.28;;
20073;SDS011;10197;54.282;10.078;2023-07-13T03:54:03;10.00;;;6.28;;
20073;SDS011;10197;54.282;10.078;2023-07-13T03:56:30;8.90;;;5.63;;
20073;SDS011;10197;54.282;10.078;2023-07-13T03:58:59;7.53;;;5.68;;
20073;SDS011;10197;54.282;10.078;2023-07-13T04:01:28;9.88;;;6.65;;
20073;SDS011;10197;54.282;10.078;2023-07-13T04:03:57;9.38;;;5.57;;
20073;SDS011;10197;54.282;10.078;2023-07-13T04:06:26;7.32;;;4.82;;
20073;SDS011;10197;54.282;10.078;2023-07-13T04:08:54;7.18;;;5.45;;
20073;SDS011;10197;54.282;10.078;2023-07-13T04:11:25;9.40;;;5.63;;
20073;SDS011;10197;54.282;10.078;2023-07-13T04:13:55;7.45;;;5.50;;
20073;SDS011;10197;54.282;10.078;2023-07-13T04:16:22;12.02;;;6.00;;
20073;SDS011;10197;54.282;10.078;2023-07-13T04:18:49;9.20;;;5.85;;
20073;SDS011;10197;54.282;10.078;2023-07-13T04:21:19;8.55;;;6.13;;
20073;SDS011;10197;54.282;10.078;2023-07-13T04:23:47;9.52;;;6.15;;
20073;SDS011;10197;54.282;10.078;2023-07-13T04:26:14;11.95;;;6.47;;
20073;SDS011;10197;54.282;10.078;2023-07-13T04:28:42;10.73;;;6.70;;
20073;SDS011;10197;54.282;10.078;2023-07-13T04:31:09;11.23;;;6.70;;
20073;SDS011;10197;54.282;10.078;2023-07-13T04:33:36;12.68;;;6.35;;
20073;SDS011;10197;54.282;10.078;2023-07-13T04:36:03;11.63;;;6.25;;
20073;SDS011;10197;54.282;10.078;2023-07-13T04:38:31;8.38;;;5.38;;
20073;SDS011;10197;54.282;10.078;2023-07-13T04:40:59;8.52;;;5.70;;
20073;SDS011;10197;54.282;10.078;2023-07-13T04:43:27;7.63;;;5.78;;
20073;SDS011;10197;54.282;10.078;2023-07-13T04:45:56;7.97;;;5.53;;
20073;SDS011;10197;54.282;10.078;2023-07-13T04:48:23;8.98;;;6.18;;
20073;SDS011;10197;54.282;10.078;2023-07-13T04:50:54;15.23;;;6.57;;
20073;SDS011;10197;54.282;10.078;2023-07-13T04:53:21;10.57;;;5.70;;
20073;SDS011;10197;54.282;10.078;2023-07-13T04:55:48;7.63;;;5.03;;
20073;SDS011;10197;54.282;10.078;2023-07-13T04:58:15;9.13;;;5.20;;
20073;SDS011;10197;54.282;10.078;2023-07-13T05:00:42;11.00;;;6.03;;
20073;SDS011;10197;54.282;10.078;2023-07-13T05:03:10;8.43;;;5.35;;
20073;SDS011;10197;54.282;10.078;2023-07-13T05:05:37;9.52;;;5.22;;
20073;SDS011;10197;54.282;10.078;2023-07-13T05:08:04;12.25;;;5.50;;
20073;SDS011;10197;54.282;10.078;2023-07-13T05:10:33;11.68;;;5.45;;
20073;SDS011;10197;54.282;10.078;2023-07-13T05:13:00;8.35;;;5.28;;
20073;SDS011;10197;54.282;10.078;2023-07-13T05:15:26;7.88;;;4.65;;
20073;SDS011;10197;54.282;10.078;2023-07-13T05:17:54;9.65;;;4.68;;
20073;SDS011;10197;54.282;10.078;2023-07-13T05:20:22;10.10;;;4.72;;
20073;SDS011;10197;54.282;10.078;2023-07-13T05:22:49;9.13;;;4.72;;
20073;SDS011;10197;54.282;10.078;2023-07-13T05:25:16;8.30;;;5.18;;
20073;SDS011;10197;54.282;10.078;2023-07-13T05:27:44;11.82;;;5.28;;
20073;SDS011;10197;54.282;10.078;2023-07-13T05:30:30;7.85;;;5.15;;
20073;SDS011;10197;54.282;10.078;2023-07-13T05:32:59;10.73;;;5.40;;
20073;SDS011;10197;54.282;10.078;2023-07-13T05:35:27;8.73;;;5.10;;
20073;SDS011;10197;54.282;10.078;2023-07-13T05:37:54;8.25;;;5.50;;
20073;SDS011;10197;54.282;10.078;2023-07-13T05:40:21;10.88;;;5.35;;
20073;SDS011;10197;54.282;10.078;2023-07-13T05:42:48;10.40;;;5.35;;
20073;SDS011;10197;54.282;10.078;2023-07-13T05:45:15;11.07;;;5.22;;
20073;SDS011;10197;54.282;10.078;2023-07-13T05:47:45;10.68;;;5.22;;
20073;SDS011;10197;54.282;10.078;2023-07-13T05:50:12;12.27;;;4.88;;
20073;SDS011;10197;54.282;10.078;2023-07-13T05:52:40;9.73;;;5.45;;
20073;SDS011;10197;54.282;10.078;2023-07-13T05:55:07;11.65;;;5.07;;
20073;SDS011;10197;54.282;10.078;2023-07-13T05:57:35;10.60;;;5.13;;
20073;SDS011;10197;54.282;10.078;2023-07-13T06:00:02;12.00;;;5.03;;
20073;SDS011;10197;54.282;10.078;2023-07-13T06:02:37;9.70;;;5.78;;
20073;SDS011;10197;54.282;10.078;2023-07-13T06:05:05;10.55;;;5.05;;
20073;SDS011;10197;54.282;10.078;2023-07-13T06:07:42;13.13;;;5.15;;
20073;SDS011;10197;54.282;10.078;2023-07-13T06:10:09;13.30;;;5.30;;
20073;SDS011;10197;54.282;10.078;2023-07-13T06:12:36;9.88;;;5.72;;
20073;SDS011;10197;54.282;10.078;2023-07-13T06:15:04;13.43;;;4.75;;
20073;SDS011;10197;54.282;10.078;2023-07-13T06:17:31;13.48;;;4.95;;
20073;SDS011;10197;54.282;10.078;2023-07-13T06:19:58;9.75;;;4.88;;
20073;SDS011;10197;54.282;10.078;2023-07-13T06:22:25;9.65;;;4.57;;
20073;SDS011;10197;54.282;10.078;2023-07-13T06:24:53;12.48;;;4.97;;
20073;SDS011;10197;54.282;10.078;2023-07-13T06:27:23;11.05;;;5.47;;
20073;SDS011;10197;54.282;10.078;2023-07-13T06:29:50;10.93;;;5.07;;
20073;SDS011;10197;54.282;10.078;2023-07-13T06:32:17;8.65;;;4.60;;
20073;SDS011;10197;54.282;10.078;2023-07-13T06:34:44;12.23;;;5.22;;
20073;SDS011;10197;54.282;10.078;2023-07-13T06:37:11;9.95;;;4.90;;
20073;SDS011;10197;54.282;10.078;2023-07-13T06:39:38;10.80;;;5.03;;
20073;SDS011;10197;54.282;10.078;2023-07-13T06:42:07;12.38;;;4.80;;
20073;SDS011;10197;54.282;10.078;2023-07-13T06:44:33;11.23;;;5.35;;
20073;SDS011;10197;54.282;10.078;2023-07-13T06:47:01;16.38;;;5.28;;
20073;SDS011;10197;54.282;10.078;2023-07-13T06:49:28;9.57;;;4.93;;
20073;SDS011;10197;54.282;10.078;2023-07-13T06:51:55;13.38;;;4.82;;
20073;SDS011;10197;54.282;10.078;2023-07-13T06:54:22;10.90;;;4.80;;
20073;SDS011;10197;54.282;10.078;2023-07-13T06:56:49;11.52;;;4.85;;
20073;SDS011;10197;54.282;10.078;2023-07-13T06:59:18;9.15;;;3.83;;
20073;SDS011;10197;54.282;10.078;2023-07-13T07:01:45;8.07;;;3.97;;
20073;SDS011;10197;54.282;10.078;2023-07-13T07:04:12;8.88;;;4.30;;
20073;SDS011;10197;54.282;10.078;2023-07-13T07:06:42;12.55;;;4.32;;
20073;SDS011;10197;54.282;10.078;2023-07-13T07:09:08;13.20;;;4.88;;
20073;SDS011;10197;54.282;10.078;2023-07-13T07:11:35;11.95;;;4.65;;
20073;SDS011;10197;54.282;10.078;2023-07-13T07:14:02;13.35;;;4.60;;
20073;SDS011;10197;54.282;10.078;2023-07-13T07:16:31;11.60;;;4.05;;
20073;SDS011;10197;54.282;10.078;2023-07-13T07:18:58;12.32;;;4.32;;
20073;SDS011;10197;54.282;10.078;2023-07-13T07:21:25;10.60;;;4.20;;
20073;SDS011;10197;54.282;10.078;2023-07-13T07:23:52;8.80;;;3.53;;
20073;SDS011;10197;54.282;10.078;2023-07-13T07:26:19;11.75;;;4.00;;
20073;SDS011;10197;54.282;10.078;2023-07-13T07:28:46;13.40;;;4.40;;
20073;SDS011;10197;54.282;10.078;2023-07-13T07:31:13;8.10;;;3.58;;
20073;SDS011;10197;54.282;10.078;2023-07-13T07:33:41;9.52;;;3.78;;
20073;SDS011;10197;54.282;10.078;2023-07-13T07:36:08;8.27;;;3.67;;
20073;SDS011;10197;54.282;10.078;2023-07-13T07:38:35;11.25;;;3.72;;
20073;SDS011;10197;54.282;10.078;2023-07-13T07:41:03;9.10;;;3.75;;
20073;SDS011;10197;54.282;10.078;2023-07-13T07:43:30;9.63;;;3.40;;
20073;SDS011;10197;54.282;10.078;2023-07-13T07:45:57;12.38;;;3.70;;
20073;SDS011;10197;54.282;10.078;2023-07-13T07:48:24;10.75;;;3.55;;
20073;SDS011;10197;54.282;10.078;2023-07-13T07:50:54;10.13;;;3.28;;
20073;SDS011;10197;54.282;10.078;2023-07-13T07:53:20;7.18;;;3.08;;
20073;SDS011;10197;54.282;10.078;2023-07-13T07:55:47;11.65;;;3.20;;
20073;SDS011;10197;54.282;10.078;2023-07-13T07:58:16;10.02;;;2.97;;
20073;SDS011;10197;54.282;10.078;2023-07-13T08:00:43;9.90;;;3.28;;
20073;SDS011;10197;54.282;10.078;2023-07-13T08:03:10;10.20;;;3.17;;
20073;SDS011;10197;54.282;10.078;2023-07-13T08:05:36;10.18;;;3.63;;
20073;SDS011;10197;54.282;10.078;2023-07-13T08:08:05;6.88;;;2.95;;
20073;SDS011;10197;54.282;10.078;2023-07-13T08:10:34;8.38;;;3.05;;
20073;SDS011;10197;54.282;10.078;2023-07-13T08:13:01;8.48;;;3.03;;
20073;SDS011;10197;54.282;10.078;2023-07-13T08:15:28;9.57;;;2.67;;
20073;SDS011;10197;54.282;10.078;2023-07-13T08:17:55;6.45;;;2.65;;
20073;SDS011;10197;54.282;10.078;2023-07-13T08:20:22;9.15;;;2.92;;
20073;SDS011;10197;54.282;10.078;2023-07-13T08:22:49;8.02;;;2.85;;
20073;SDS011;10197;54.282;10.078;2023-07-13T08:25:17;8.15;;;3.38;;
20073;SDS011;10197;54.282;10.078;2023-07-13T08:27:45;6.85;;;2.53;;
20073;SDS011;10197;54.282;10.078;2023-07-13T08:30:12;8.07;;;2.72;;
20073;SDS011;10197;54.282;10.078;2023-07-13T08:32:39;7.43;;;3.05;;
20073;SDS011;10197;54.282;10.078;2023-07-13T08:35:06;5.25;;;2.65;;
20073;SDS011;10197;54.282;10.078;2023-07-13T08:37:33;7.75;;;3.00;;
20073;SDS011;10197;54.282;10.078;2023-07-13T08:40:00;8.43;;;2.97;;
20073;SDS011;10197;54.282;10.078;2023-07-13T08:42:32;9.50;;;2.90;;
20073;SDS011;10197;54.282;10.078;2023-07-13T08:45:03;5.90;;;2.70;;
20073;SDS011;10197;54.282;10.078;2023-07-13T08:47:37;8.85;;;3.00;;
20073;SDS011;10197;54.282;10.078;2023-07-13T08:50:08;9.45;;;2.60;;
20073;SDS011;10197;54.282;10.078;2023-07-13T08:52:38;5.28;;;2.47;;
20073;SDS011;10197;54.282;10.078;2023-07-13T08:55:09;9.15;;;2.80;;
20073;SDS011;10197;54.282;10.078;2023-07-13T08:57:42;9.18;;;2.92;;
20073;SDS011;10197;54.282;10.078;2023-07-13T09:00:11;5.38;;;2.47;;
20073;SDS011;10197;54.282;10.078;2023-07-13T09:02:42;6.75;;;2.72;;
20073;SDS011;10197;54.282;10.078;2023-07-13T09:05:12;6.95;;;2.20;;
20073;SDS011;10197;54.282;10.078;2023-07-13T09:07:44;6.88;;;2.53;;
20073;SDS011;10197;54.282;10.078;2023-07-13T09:10:23;7.00;;;2.50;;
20073;SDS011;10197;54.282;10.078;2023-07-13T09:12:58;8.07;;;2.67;;
20073;SDS011;10197;54.282;10.078;2023-07-13T09:15:31;7.32;;;2.78;;
20073;SDS011;10197;54.282;10.078;2023-07-13T09:17:59;6.70;;;3.00;;
20073;SDS011;10197;54.282;10.078;2023-07-13T09:20:30;5.72;;;2.95;;
20073;SDS011;10197;54.282;10.078;2023-07-13T09:22:59;4.07;;;2.97;;
20073;SDS011;10197;54.282;10.078;2023-07-13T09:25:29;4.85;;;3.10;;
20073;SDS011;10197;54.282;10.078;2023-07-13T09:28:00;7.57;;;3.35;;
20073;SDS011;10197;54.282;10.078;2023-07-13T09:30:33;8.00;;;3.22;;
20073;SDS011;10197;54.282;10.078;2023-07-13T09:33:03;9.40;;;3.45;;
20073;SDS011;10197;54.282;10.078;2023-07-13T09:35:30;8.18;;;2.95;;
20073;SDS011;10197;54.282;10.078;2023-07-13T09:37:59;7.25;;;3.13;;
20073;SDS011;10197;54.282;10.078;2023-07-13T09:40:46;8.00;;;3.10;;
20073;SDS011;10197;54.282;10.078;2023-07-13T09:43:21;7.40;;;3.17;;
20073;SDS011;10197;54.282;10.078;2023-07-13T09:45:48;7.82;;;3.22;;
20073;SDS011;10197;54.282;10.078;2023-07-13T09:48:16;7.93;;;3.25;;
20073;SDS011;10197;54.282;10.078;2023-07-13T09:50:44;6.05;;;3.30;;
20073;SDS011;10197;54.282;10.078;2023-07-13T09:53:11;8.38;;;3.15;;
20073;SDS011;10197;54.282;10.078;2023-07-13T09:55:39;7.57;;;3.55;;
20073;SDS011;10197;54.282;10.078;2023-07-13T09:58:09;6.90;;;3.20;;
20073;SDS011;10197;54.282;10.078;2023-07-13T10:00:39;5.88;;;2.92;;
20073;SDS011;10197;54.282;10.078;2023-07-13T10:03:14;7.10;;;3.03;;
20073;SDS011;10197;54.282;10.078;2023-07-13T10:05:44;7.70;;;2.78;;
20073;SDS011;10197;54.282;10.078;2023-07-13T10:08:21;5.00;;;2.90;;
20073;SDS011;10197;54.282;10.078;2023-07-13T10:10:54;7.90;;;3.30;;
20073;SDS011;10197;54.282;10.078;2023-07-13T10:13:28;6.40;;;3.75;;
20073;SDS011;10197;54.282;10.078;2023-07-13T10:15:59;8.68;;;3.20;;
20073;SDS011;10197;54.282;10.078;2023-07-13T10:18:26;7.55;;;2.97;;
20073;SDS011;10197;54.282;10.078;2023-07-13T10:20:58;6.40;;;2.78;;
20073;SDS011;10197;54.282;10.078;2023-07-13T10:23:39;9.07;;;2.70;;
20073;SDS011;10197;54.282;10.078;2023-07-13T10:26:09;4.60;;;2.53;;
20073;SDS011;10197;54.282;10.078;2023-07-13T10:28:40;3.97;;;2.40;;
20073;SDS011;10197;54.282;10.078;2023-07-13T10:31:10;3.60;;;1.50;;
20073;SDS011;10197;54.282;10.078;2023-07-13T10:33:39;2.33;;;1.30;;
20073;SDS011;10197;54.282;10.078;2023-07-13T10:36:11;1.63;;;1.30;;
20073;SDS011;10197;54.282;10.078;2023-07-13T10:38:40;3.13;;;1.45;;
20073;SDS011;10197;54.282;10.078;2023-07-13T10:41:09;4.57;;;1.60;;
20073;SDS011;10197;54.282;10.078;2023-07-13T10:43:39;4.05;;;1.50;;
20073;SDS011;10197;54.282;10.078;2023-07-13T10:46:13;4.35;;;1.63;;
20073;SDS011;10197;54.282;10.078;2023-07-13T10:48:41;2.63;;;1.40;;
20073;SDS011;10197;54.282;10.078;2023-07-13T10:51:10;4.18;;;1.50;;
20073;SDS011;10197;54.282;10.078;2023-07-13T10:53:42;3.60;;;1.80;;
20073;SDS011;10197;54.282;10.078;2023-07-13T10:56:18;4.40;;;1.35;;
20073;SDS011;10197;54.282;10.078;2023-07-13T10:59:00;4.13;;;1.50;;
20073;SDS011;10197;54.282;10.078;2023-07-13T11:01:40;3.72;;;1.48;;
20073;SDS011;10197;54.282;10.078;2023-07-13T11:04:08;4.40;;;1.65;;
20073;SDS011;10197;54.282;10.078;2023-07-13T11:06:39;2.95;;;1.20;;
20073;SDS011;10197;54.282;10.078;2023-07-13T11:09:18;3.25;;;1.38;;
20073;SDS011;10197;54.282;10.078;2023-07-13T11:12:02;3.78;;;1.50;;
20073;SDS011;10197;54.282;10.078;2023-07-13T11:14:34;4.47;;;1.30;;
20073;SDS011;10197;54.282;10.078;2023-07-13T11:22:50;3.17;;;1.75;;
20073;SDS011;10197;54.282;10.078;2023-07-13T11:25:25;5.50;;;2.28;;
20073;SDS011;10197;54.282;10.078;2023-07-13T11:30:59;3.75;;;1.35;;
20073;SDS011;10197;54.282;10.078;2023-07-13T11:33:31;4.15;;;1.48;;
20073;SDS011;10197;54.282;10.078;2023-07-13T11:36:23;4.63;;;1.60;;
20073;SDS011;10197;54.282;10.078;2023-07-13T11:38:56;4.85;;;1.70;;
20073;SDS011;10197;54.282;10.078;2023-07-13T11:41:27;4.18;;;1.60;;
20073;SDS011;10197;54.282;10.078;2023-07-13T11:44:02;4.60;;;2.00;;
20073;SDS011;10197;54.282;10.078;2023-07-13T11:46:33;3.58;;;1.55;;
20073;SDS011;10197;54.282;10.078;2023-07-13T11:49:04;4.20;;;1.50;;
20073;SDS011;10197;54.282;10.078;2023-07-13T11:51:33;5.47;;;1.70;;
20073;SDS011;10197;54.282;10.078;2023-07-13T11:54:02;4.95;;;1.70;;
20073;SDS011;10197;54.282;10.078;2023-07-13T11:56:30;5.38;;;1.50;;
20073;SDS011;10197;54.282;10.078;2023-07-13T11:59:02;5.38;;;1.52;;
20073;SDS011;10197;54.282;10.078;2023-07-13T12:01:31;5.60;;;1.50;;
20073;SDS011;10197;54.282;10.078;2023-07-13T12:03:59;6.25;;;1.60;;
20073;SDS011;10197;54.282;10.078;2023-07-13T12:06:29;6.38;;;1.67;;
20073;SDS011;10197;54.282;10.078;2023-07-13T12:08:57;5.38;;;1.52;;
20073;SDS011;10197;54.282;10.078;2023-07-13T12:11:25;3.42;;;1.38;;
20073;SDS011;10197;54.282;10.078;2023-07-13T12:13:52;3.00;;;1.17;;
20073;SDS011;10197;54.282;10.078;2023-07-13T12:16:22;6.63;;;1.90;;
20073;SDS011;10197;54.282;10.078;2023-07-13T12:18:53;2.90;;;1.52;;
20073;SDS011;10197;54.282;10.078;2023-07-13T12:21:22;3.60;;;1.48;;
20073;SDS011;10197;54.282;10.078;2023-07-13T12:23:53;3.30;;;1.13;;
20073;SDS011;10197;54.282;10.078;2023-07-13T12:26:20;2.97;;;1.30;;
20073;SDS011;10197;54.282;10.078;2023-07-13T12:28:48;6.00;;;1.60;;
20073;SDS011;10197;54.282;10.078;2023-07-13T12:31:25;4.75;;;1.10;;
20073;SDS011;10197;54.282;10.078;2023-07-13T12:33:56;2.75;;;1.40;;
20073;SDS011;10197;54.282;10.078;2023-07-13T12:36:31;4.30;;;1.27;;
20073;SDS011;10197;54.282;10.078;2023-07-13T12:39:12;4.55;;;1.55;;
20073;SDS011;10197;54.282;10.078;2023-07-13T12:44:56;3.35;;;1.20;;
20073;SDS011;10197;54.282;10.078;2023-07-13T12:47:25;2.35;;;1.30;;
20073;SDS011;10197;54.282;10.078;2023-07-13T12:49:59;4.30;;;1.20;;
20073;SDS011;10197;54.282;10.078;2023-07-13T12:52:34;5.07;;;1.40;;
20073;SDS011;10197;54.282;10.078;2023-07-13T12:55:04;3.58;;;1.38;;
20073;SDS011;10197;54.282;10.078;2023-07-13T12:57:38;5.18;;;1.20;;
20073;SDS011;10197;54.282;10.078;2023-07-13T13:00:19;1.77;;;1.00;;
20073;SDS011;10197;54.282;10.078;2023-07-13T13:02:51;1.58;;;1.10;;
20073;SDS011;10197;54.282;10.078;2023-07-13T13:05:19;8.00;;;1.50;;
20073;SDS011;10197;54.282;10.078;2023-07-13T13:07:50;3.53;;;1.30;;
20073;SDS011;10197;54.282;10.078;2023-07-13T13:10:20;3.33;;;1.50;;
20073;SDS011;10197;54.282;10.078;2023-07-13T13:12:53;2.78;;;1.20;;
20073;SDS011;10197;54.282;10.078;2023-07-13T13:15:19;2.45;;;1.30;;
20073;SDS011;10197;54.282;10.078;2023-07-13T13:17:53;3.15;;;1.45;;
20073;SDS011;10197;54.282;10.078;2023-07-13T13:20:26;4.50;;;1.20;;
20073;SDS011;10197;54.282;10.078;2023-07-13T13:22:55;4.38;;;1.33;;
20073;SDS011;10197;54.282;10.078;2023-07-13T13:25:21;2.58;;;1.13;;
20073;SDS011;10197;54.282;10.078;2023-07-13T13:27:48;5.85;;;1.20;;
20073;SDS011;10197;54.282;10.078;2023-07-13T13:30:17;3.33;;;1.55;;
20073;SDS011;10197;54.282;10.078;2023-07-13T13:32:46;3.45;;;1.30;;
20073;SDS011;10197;54.282;10.078;2023-07-13T13:35:18;7.07;;;1.75;;
20073;SDS011;10197;54.282;10.078;2023-07-13T13:37:46;5.78;;;1.67;;
20073;SDS011;10197;54.282;10.078;2023-07-13T13:40:20;4.55;;;1.65;;
20073;SDS011;10197;54.282;10.078;2023-07-13T13:42:48;6.20;;;1.83;;
20073;SDS011;10197;54.282;10.078;2023-07-13T13:45:20;2.88;;;1.33;;
20073;SDS011;10197;54.282;10.078;2023-07-13T13:47:47;4.57;;;1.70;;
20073;SDS011;10197;54.282;10.078;2023-07-13T13:50:15;4.70;;;1.65;;
20073;SDS011;10197;54.282;10.078;2023-07-13T13:52:44;3.40;;;1.50;;
20073;SDS011;10197;54.282;10.078;2023-07-13T13:55:12;4.03;;;1.70;;
20073;SDS011;10197;54.282;10.078;2023-07-13T13:57:40;5.97;;;1.73;;
20073;SDS011;10197;54.282;10.078;2023-07-13T14:00:08;5.18;;;1.27;;
20073;SDS011;10197;54.282;10.078;2023-07-13T14:02:39;6.82;;;1.42;;
20073;SDS011;10197;54.282;10.078;2023-07-13T14:05:09;5.53;;;1.55;;
20073;SDS011;10197;54.282;10.078;2023-07-13T14:07:38;7.63;;;1.80;;
20073;SDS011;10197;54.282;10.078;2023-07-13T14:10:10;4.90;;;1.50;;
20073;SDS011;10197;54.282;10.078;2023-07-13T14:12:38;5.47;;;1.60;;
20073;SDS011;10197;54.282;10.078;2023-07-13T14:15:08;2.95;;;1.33;;
20073;SDS011;10197;54.282;10.078;2023-07-13T14:17:47;4.18;;;1.80;;
20073;SDS011;10197;54.282;10.078;2023-07-13T14:20:15;5.93;;;1.65;;
20073;SDS011;10197;54.282;10.078;2023-07-13T14:22:42;7.32;;;1.40;;
20073;SDS011;10197;54.282;10.078;2023-07-13T14:25:10;4.80;;;1.70;;
20073;SDS011;10197;54.282;10.078;2023-07-13T14:27:37;4.75;;;1.77;;
20073;SDS011;10197;54.282;10.078;2023-07-13T14:30:07;4.78;;;1.80;;
20073;SDS011;10197;54.282;10.078;2023-07-13T14:32:40;5.70;;;1.63;;
20073;SDS011;10197;54.282;10.078;2023-07-13T14:35:08;6.40;;;1.95;;
20073;SDS011;10197;54.282;10.078;2023-07-13T14:37:36;6.50;;;1.83;;
20073;SDS011;10197;54.282;10.078;2023-07-13T14:40:07;6.57;;;1.60;;
20073;SDS011;10197;54.282;10.078;2023-07-13T14:42:39;4.35;;;1.73;;
20073;SDS011;10197;54.282;10.078;2023-07-13T14:45:09;4.82;;;1.67;;
20073;SDS011;10197;54.282;10.078;2023-07-13T14:47:40;8.38;;;1.40;;
20073;SDS011;10197;54.282;10.078;2023-07-13T14:50:11;2.78;;;1.20;;
20073;SDS011;10197;54.282;10.078;2023-07-13T14:52:41;2.35;;;1.10;;
20073;SDS011;10197;54.282;10.078;2023-07-13T14:55:08;5.68;;;1.60;;
20073;SDS011;10197;54.282;10.078;2023-07-13T14:57:37;7.10;;;1.33;;
20073;SDS011;10197;54.282;10.078;2023-07-13T15:00:05;3.17;;;1.00;;